createdAt,value
2022-12-08T00:02:22.712Z,14.90
2022-12-08T00:05:14.119Z,16.80
2022-12-08T00:08:03.066Z,18.20
2022-12-08T00:10:49.050Z,19.30
2022-12-08T00:13:21.627Z,15.70
2022-12-08T00:15:53.144Z,16.70
2022-12-08T00:18:24.611Z,18.20
2022-12-08T00:20:58.645Z,16.90
2022-12-08T00:23:30.441Z,15.40
2022-12-08T00:26:06.055Z,15.30
2022-12-08T00:28:37.940Z,15.20
2022-12-08T00:31:13.934Z,14.40
2022-12-08T00:33:45.688Z,15.50
2022-12-08T00:36:17.430Z,14.20
2022-12-08T00:38:49.121Z,15.80
2022-12-08T00:41:43.245Z,13.90
2022-12-08T00:46:46.139Z,14.90
2022-12-08T00:49:18.327Z,12.60
2022-12-08T00:51:49.838Z,12.40
2022-12-08T00:54:23.327Z,13.90
2022-12-08T00:56:54.921Z,15.00
2022-12-08T00:59:26.411Z,13.40
2022-12-08T01:01:58.007Z,13.60
2022-12-08T01:04:29.507Z,11.80
2022-12-08T01:07:00.983Z,12.70
2022-12-08T01:09:32.626Z,13.10
2022-12-08T01:12:04.216Z,12.20
2022-12-08T01:14:35.751Z,14.20
2022-12-08T01:17:07.294Z,11.80
2022-12-08T01:19:39.681Z,13.80
2022-12-08T01:22:11.323Z,13.60
2022-12-08T01:24:43.041Z,14.20
2022-12-08T01:27:16.264Z,13.30
2022-12-08T01:29:47.744Z,15.00
2022-12-08T01:32:19.241Z,12.70
2022-12-08T01:34:50.728Z,14.70
2022-12-08T01:37:22.233Z,14.40
2022-12-08T01:39:53.729Z,15.80
2022-12-08T01:42:26.479Z,14.10
2022-12-08T01:45:03.607Z,12.00
2022-12-08T01:47:41.405Z,14.10
2022-12-08T01:50:15.564Z,13.60
2022-12-08T01:52:51.763Z,13.70
2022-12-08T01:55:27.665Z,14.80
2022-12-08T01:58:04.079Z,15.10
2022-12-08T02:00:35.530Z,14.20
2022-12-08T02:03:12.169Z,16.60
2022-12-08T02:05:44.955Z,14.10
2022-12-08T02:08:17.508Z,13.20
2022-12-08T02:10:53.046Z,14.50
2022-12-08T02:13:26.454Z,12.20
2022-12-08T02:16:05.068Z,11.80
2022-12-08T02:19:28.615Z,12.00
2022-12-08T02:21:52.485Z,11.80
2022-12-08T02:24:33.020Z,12.60
2022-12-08T02:27:20.790Z,11.40
2022-12-08T02:30:09.440Z,14.00
2022-12-08T02:33:21.011Z,14.90
2022-12-08T02:36:00.925Z,12.70
2022-12-08T02:38:43.080Z,12.80
2022-12-08T02:41:24.934Z,14.90
2022-12-08T02:44:02.517Z,14.60
2022-12-08T02:46:39.340Z,14.80
2022-12-08T02:49:10.973Z,12.80
2022-12-08T02:51:42.467Z,13.40
2022-12-08T02:54:15.500Z,16.60
2022-12-08T02:57:13.597Z,12.60
2022-12-08T03:00:02.832Z,15.60
2022-12-08T03:02:46.237Z,13.10
2022-12-08T03:05:35.282Z,13.00
2022-12-08T03:08:15.943Z,13.80
2022-12-08T03:10:53.109Z,13.90
2022-12-08T03:13:31.038Z,13.20
2022-12-08T03:16:06.469Z,12.90
2022-12-08T03:18:44.127Z,14.80
2022-12-08T03:21:19.128Z,14.70
2022-12-08T03:23:54.460Z,14.00
2022-12-08T03:26:30.444Z,16.80
2022-12-08T03:29:02.175Z,14.70
2022-12-08T03:31:40.747Z,15.30
2022-12-08T03:34:15.098Z,15.20
2022-12-08T03:36:47.709Z,15.00
2022-12-08T03:39:19.605Z,13.70
2022-12-08T03:41:51.133Z,14.40
2022-12-08T03:44:22.636Z,14.10
2022-12-08T03:46:54.165Z,16.20
2022-12-08T03:49:25.702Z,16.50
2022-12-08T03:51:57.176Z,14.00
2022-12-08T03:54:28.824Z,15.50
2022-12-08T03:57:00.347Z,16.30
2022-12-08T03:59:31.867Z,23.10
2022-12-08T04:02:03.435Z,19.20
2022-12-08T04:04:35.003Z,17.20
2022-12-08T04:07:06.498Z,17.20
2022-12-08T04:09:38.992Z,14.80
2022-12-08T04:12:11.079Z,16.20
2022-12-08T04:14:42.722Z,15.40
2022-12-08T04:17:14.211Z,17.70
2022-12-08T04:19:45.828Z,17.20
2022-12-08T04:22:17.447Z,16.10
2022-12-08T04:24:48.973Z,17.20
2022-12-08T04:27:20.468Z,18.20
2022-12-08T04:29:51.976Z,16.50
2022-12-08T04:32:23.448Z,18.30
2022-12-08T04:34:54.960Z,16.50
2022-12-08T04:37:26.499Z,17.50
2022-12-08T04:39:58.016Z,17.70
2022-12-08T04:42:29.540Z,17.40
2022-12-08T04:45:01.225Z,16.90
2022-12-08T04:47:33.054Z,18.10
2022-12-08T04:50:05.398Z,17.10
2022-12-08T04:52:37.877Z,16.90
2022-12-08T04:55:11.084Z,16.40
2022-12-08T04:57:42.683Z,15.50
2022-12-08T05:00:16.267Z,18.60
2022-12-08T05:02:47.835Z,17.20
2022-12-08T05:05:19.621Z,19.70
2022-12-08T05:07:51.166Z,19.30
2022-12-08T05:10:23.043Z,19.90
2022-12-08T05:12:54.514Z,21.30
2022-12-08T05:15:26.597Z,17.40
2022-12-08T05:17:58.161Z,19.90
2022-12-08T05:20:30.256Z,23.40
2022-12-08T05:23:01.744Z,20.90
2022-12-08T05:25:33.241Z,19.70
2022-12-08T05:28:32.868Z,21.30
2022-12-08T05:30:56.578Z,20.00
2022-12-08T05:33:28.130Z,19.40
2022-12-08T05:35:59.780Z,19.70
2022-12-08T05:38:31.265Z,20.70
2022-12-08T05:41:02.797Z,22.20
2022-12-08T05:43:34.681Z,18.20
2022-12-08T05:46:06.567Z,20.90
2022-12-08T05:48:38.849Z,20.30
2022-12-08T05:51:19.762Z,20.00
2022-12-08T05:53:53.046Z,22.30
2022-12-08T05:56:25.542Z,21.40
2022-12-08T05:58:57.024Z,25.90
2022-12-08T06:01:30.249Z,22.70
2022-12-08T06:04:03.742Z,23.50
2022-12-08T06:06:36.966Z,23.60
2022-12-08T06:09:09.390Z,21.40
2022-12-08T06:11:40.883Z,23.30
2022-12-08T06:14:14.817Z,21.30
2022-12-08T06:16:46.416Z,25.60
2022-12-08T06:19:18.242Z,24.80
2022-12-08T06:21:49.914Z,25.20
2022-12-08T06:24:21.460Z,28.10
2022-12-08T06:26:54.019Z,23.70
2022-12-08T06:29:25.948Z,25.10
2022-12-08T06:31:57.589Z,20.70
2022-12-08T06:34:29.556Z,24.90
2022-12-08T06:37:01.061Z,24.20
2022-12-08T06:39:32.577Z,21.40
2022-12-08T06:42:21.946Z,18.80
2022-12-08T06:44:53.996Z,19.80
2022-12-08T06:47:26.506Z,20.30
2022-12-08T06:49:58.171Z,20.60
2022-12-08T06:52:29.893Z,18.80
2022-12-08T06:55:01.771Z,20.10
2022-12-08T06:57:33.378Z,19.70
2022-12-08T07:00:07.178Z,19.20
2022-12-08T07:02:39.943Z,20.80
2022-12-08T07:05:11.686Z,17.70
2022-12-08T07:07:43.372Z,56.50
2022-12-08T07:10:15.236Z,21.00
2022-12-08T07:12:47.057Z,18.90
2022-12-08T07:15:19.042Z,19.10
2022-12-08T07:17:54.950Z,19.00
2022-12-08T07:20:29.615Z,18.30
2022-12-08T07:23:01.315Z,19.40
2022-12-08T07:25:32.895Z,16.90
2022-12-08T07:28:08.377Z,18.00
2022-12-08T07:30:40.343Z,20.10
2022-12-08T07:33:11.977Z,16.20
2022-12-08T07:35:49.019Z,20.70
2022-12-08T07:38:21.129Z,17.80
2022-12-08T07:40:52.711Z,18.90
2022-12-08T07:43:25.977Z,20.90
2022-12-08T07:45:57.778Z,21.60
2022-12-08T07:48:29.493Z,17.60
2022-12-08T07:51:05.151Z,19.90
2022-12-08T07:53:36.778Z,20.60
2022-12-08T07:56:11.485Z,18.20
2022-12-08T07:58:45.783Z,21.40
2022-12-08T08:01:29.578Z,17.80
2022-12-08T08:04:04.287Z,18.40
2022-12-08T08:06:37.928Z,17.70
2022-12-08T08:11:42.301Z,15.60
2022-12-08T08:14:13.776Z,16.50
2022-12-08T08:16:47.615Z,18.20
2022-12-08T08:19:19.557Z,18.00
2022-12-08T08:21:51.134Z,15.20
2022-12-08T08:24:24.112Z,18.40
2022-12-08T08:26:55.570Z,16.80
2022-12-08T08:29:27.430Z,15.70
2022-12-08T08:31:59.036Z,16.30
2022-12-08T08:34:30.654Z,16.60
2022-12-08T08:37:02.325Z,17.00
2022-12-08T08:39:34.027Z,16.20
2022-12-08T08:42:05.769Z,18.70
2022-12-08T08:44:39.149Z,16.40
2022-12-08T08:47:10.949Z,16.20
2022-12-08T08:49:42.524Z,14.90
2022-12-08T08:52:14.072Z,14.50
2022-12-08T08:54:45.685Z,15.20
2022-12-08T08:57:23.682Z,16.30
2022-12-08T08:59:57.100Z,15.20
2022-12-08T09:02:28.707Z,18.30
2022-12-08T09:05:00.551Z,16.70
2022-12-08T09:07:32.374Z,17.00
2022-12-08T09:10:04.690Z,17.60
2022-12-08T09:12:36.348Z,21.60
2022-12-08T09:15:09.708Z,18.90
2022-12-08T09:17:41.230Z,16.60
2022-12-08T09:20:13.554Z,17.40
2022-12-08T09:22:45.182Z,18.90
2022-12-08T09:25:17.053Z,18.50
2022-12-08T09:27:48.582Z,17.60
2022-12-08T09:30:20.489Z,19.80
2022-12-08T09:32:52.015Z,18.70
2022-12-08T09:35:23.686Z,20.40
2022-12-08T09:37:55.227Z,20.50
2022-12-08T09:40:27.733Z,17.10
2022-12-08T09:43:06.031Z,19.70
2022-12-08T09:45:39.020Z,17.70
2022-12-08T09:48:16.290Z,23.20
2022-12-08T09:50:53.668Z,24.30
2022-12-08T09:53:35.521Z,23.10
2022-12-08T09:56:13.497Z,22.00
2022-12-08T09:58:52.644Z,24.30
2022-12-08T10:01:27.841Z,22.60
2022-12-08T10:04:00.035Z,19.20
2022-12-08T10:06:34.973Z,17.60
2022-12-08T10:09:23.186Z,18.90
2022-12-08T10:12:00.628Z,22.30
2022-12-08T10:14:42.348Z,20.00
2022-12-08T10:17:22.119Z,18.90
2022-12-08T10:19:58.415Z,17.30
2022-12-08T10:22:41.277Z,16.80
2022-12-08T10:25:20.801Z,15.10
2022-12-08T10:27:55.675Z,13.10
2022-12-08T10:30:27.690Z,12.20
2022-12-08T10:32:59.243Z,13.30
2022-12-08T10:35:46.916Z,13.50
2022-12-08T10:38:27.024Z,11.90
2022-12-08T10:41:05.895Z,11.80
2022-12-08T10:43:40.681Z,10.00
2022-12-08T10:46:15.630Z,14.50
2022-12-08T10:48:56.067Z,10.70
2022-12-08T10:51:31.850Z,11.40
2022-12-08T10:54:06.005Z,12.20
2022-12-08T10:56:37.508Z,15.80
2022-12-08T10:59:16.143Z,11.10
2022-12-08T11:01:51.993Z,10.00
2022-12-08T11:04:31.974Z,11.10
2022-12-08T11:07:05.843Z,10.20
2022-12-08T11:09:48.122Z,12.60
2022-12-08T11:12:21.416Z,11.60
2022-12-08T11:15:01.061Z,9.10
2022-12-08T11:17:40.527Z,10.20
2022-12-08T11:20:24.406Z,11.50
2022-12-08T11:22:57.326Z,9.30
2022-12-08T11:25:29.648Z,11.80
2022-12-08T11:28:02.831Z,9.80
2022-12-08T11:30:39.017Z,11.70
2022-12-08T11:33:20.880Z,10.80
2022-12-08T11:35:58.117Z,11.20
2022-12-08T11:38:30.972Z,11.20
2022-12-08T11:41:08.458Z,12.90
2022-12-08T11:43:51.986Z,9.50
2022-12-08T11:46:26.844Z,10.70
2022-12-08T11:49:06.805Z,12.10
2022-12-08T11:51:44.903Z,11.80
2022-12-08T11:54:23.812Z,11.20
2022-12-08T11:56:57.627Z,11.50
2022-12-08T11:59:32.706Z,11.10
2022-12-08T12:02:06.350Z,9.80
2022-12-08T12:04:44.674Z,10.20
2022-12-08T12:07:52.154Z,10.00
2022-12-08T12:10:37.030Z,13.00
2022-12-08T12:13:32.964Z,9.90
2022-12-08T12:16:30.492Z,10.20
2022-12-08T12:19:04.561Z,13.40
2022-12-08T12:21:39.291Z,13.30
2022-12-08T12:24:20.931Z,11.70
2022-12-08T12:27:02.095Z,10.30
2022-12-08T12:29:37.169Z,10.70
2022-12-08T12:32:11.178Z,12.20
2022-12-08T12:34:50.973Z,10.00
2022-12-08T12:37:25.770Z,8.00
2022-12-08T12:40:04.666Z,10.60
2022-12-08T12:42:42.115Z,8.70
2022-12-08T12:45:32.947Z,9.60
2022-12-08T12:48:25.509Z,11.80
2022-12-08T12:50:57.312Z,10.10
2022-12-08T12:53:52.085Z,10.00
2022-12-08T12:56:52.283Z,9.70
2022-12-08T12:59:42.635Z,11.60
2022-12-08T13:02:27.517Z,11.00
2022-12-08T13:05:04.428Z,11.90
2022-12-08T13:07:46.771Z,11.80
2022-12-08T13:10:23.432Z,11.10
2022-12-08T13:13:17.613Z,11.90
2022-12-08T13:15:54.596Z,12.70
2022-12-08T13:18:30.175Z,14.10
2022-12-08T13:21:12.036Z,14.50
2022-12-08T13:23:49.366Z,13.60
2022-12-08T13:26:24.374Z,13.60
2022-12-08T13:29:23.758Z,14.00
2022-12-08T13:31:58.113Z,13.40
2022-12-08T13:34:37.136Z,15.00
2022-12-08T13:37:26.290Z,12.80
2022-12-08T13:40:00.427Z,14.00
2022-12-08T13:42:42.108Z,14.20
2022-12-08T13:46:04.384Z,13.80
2022-12-08T13:57:25.128Z,14.30
2022-12-08T14:00:00.760Z,15.60
2022-12-08T14:02:38.634Z,15.10
2022-12-08T14:05:29.809Z,15.40
2022-12-08T14:08:08.295Z,17.60
2022-12-08T14:10:39.952Z,18.90
2022-12-08T14:13:15.095Z,18.50
2022-12-08T14:15:46.646Z,20.10
2022-12-08T14:18:27.010Z,16.00
2022-12-08T14:21:23.083Z,19.20
2022-12-08T14:23:54.955Z,21.40
2022-12-08T14:26:26.500Z,22.10
2022-12-08T14:28:58.214Z,22.30
2022-12-08T14:31:30.641Z,18.30
2022-12-08T14:34:02.371Z,23.00
2022-12-08T14:36:34.100Z,21.70
2022-12-08T14:39:06.113Z,20.30
2022-12-08T14:41:39.219Z,23.20
2022-12-08T14:44:24.846Z,21.70
2022-12-08T14:47:10.262Z,23.20
2022-12-08T14:49:44.543Z,22.40
2022-12-08T14:52:16.584Z,22.60
2022-12-08T14:54:50.535Z,21.90
2022-12-08T14:57:22.472Z,20.20
2022-12-08T14:59:54.600Z,24.90
2022-12-08T15:02:34.593Z,23.50
2022-12-08T15:05:13.497Z,21.30
2022-12-08T15:07:51.239Z,23.40
2022-12-08T15:10:29.637Z,24.30
2022-12-08T15:13:04.697Z,22.90
2022-12-08T15:15:49.804Z,23.30
2022-12-08T15:18:29.850Z,26.70
2022-12-08T15:21:08.039Z,26.90
2022-12-08T15:23:44.881Z,26.80
2022-12-08T15:26:22.169Z,27.60
2022-12-08T15:28:54.520Z,28.00
2022-12-08T15:31:26.138Z,31.90
2022-12-08T15:33:57.806Z,28.80
2022-12-08T15:36:29.357Z,30.10
2022-12-08T15:39:01.060Z,29.50
2022-12-08T15:41:32.644Z,30.30
2022-12-08T15:44:04.294Z,32.10
2022-12-08T15:46:36.103Z,30.60
2022-12-08T15:49:07.821Z,31.40
2022-12-08T15:51:39.279Z,36.00
2022-12-08T15:54:10.769Z,39.90
2022-12-08T15:57:17.386Z,43.10
2022-12-08T15:59:37.860Z,42.90
2022-12-08T16:02:14.532Z,39.60
2022-12-08T16:07:43.299Z,46.40
2022-12-08T16:10:19.141Z,52.10
2022-12-08T16:16:01.591Z,50.20
2022-12-08T16:18:36.906Z,46.20
2022-12-08T16:21:31.644Z,50.30
2022-12-08T16:24:06.078Z,43.80
2022-12-08T16:29:32.637Z,42.60
2022-12-08T16:32:04.216Z,44.00
2022-12-08T16:34:35.841Z,49.70
2022-12-08T16:37:07.424Z,53.30
2022-12-08T16:39:45.455Z,50.90
2022-12-08T16:42:38.254Z,50.10
2022-12-08T16:45:13.108Z,55.40
2022-12-08T16:47:46.871Z,54.80
2022-12-08T16:50:21.001Z,46.90
2022-12-08T16:52:57.420Z,39.50
2022-12-08T16:55:29.495Z,43.60
2022-12-08T16:58:01.476Z,49.00
2022-12-08T17:00:36.694Z,44.50
2022-12-08T17:03:09.386Z,49.10
2022-12-08T17:05:53.726Z,52.00
2022-12-08T17:08:26.026Z,54.00
2022-12-08T17:11:08.221Z,44.20
2022-12-08T17:13:42.404Z,37.80
2022-12-08T17:16:19.257Z,35.40
2022-12-08T17:18:50.928Z,39.30
2022-12-08T17:21:23.039Z,40.30
2022-12-08T17:23:54.977Z,36.20
2022-12-08T17:26:26.647Z,45.40
2022-12-08T17:29:01.029Z,41.30
2022-12-08T17:31:34.007Z,43.90
2022-12-08T17:34:10.152Z,51.10
2022-12-08T17:36:41.717Z,53.90
2022-12-08T17:39:18.343Z,48.70
2022-12-08T17:41:50.701Z,43.40
2022-12-08T17:44:22.928Z,40.60
2022-12-08T17:46:54.469Z,39.00
2022-12-08T17:49:29.577Z,40.30
2022-12-08T17:52:03.249Z,38.80
2022-12-08T17:57:05.613Z,37.70
2022-12-08T17:59:37.134Z,40.40
2022-12-08T18:02:11.206Z,45.30
2022-12-08T18:04:42.960Z,42.40
2022-12-08T18:07:14.473Z,43.60
2022-12-08T18:09:46.035Z,43.90
2022-12-08T18:12:23.235Z,40.70
2022-12-08T18:14:55.306Z,39.80
2022-12-08T18:17:26.836Z,38.20
2022-12-08T18:19:58.531Z,36.70
2022-12-08T18:22:30.106Z,37.90
2022-12-08T18:25:01.828Z,38.30
2022-12-08T18:27:37.291Z,42.70
2022-12-08T18:30:18.116Z,40.80
2022-12-08T18:32:54.195Z,41.40
2022-12-08T18:35:29.702Z,40.50
2022-12-08T18:38:01.645Z,38.30
2022-12-08T18:40:33.252Z,44.90
2022-12-08T18:43:04.903Z,41.00
2022-12-08T18:45:39.652Z,44.70
2022-12-08T18:48:11.467Z,53.80
2022-12-08T18:50:44.900Z,57.90
2022-12-08T18:53:16.410Z,53.20
2022-12-08T18:55:50.868Z,61.50
2022-12-08T18:58:22.403Z,62.90
2022-12-08T19:00:53.969Z,61.80
2022-12-08T19:03:25.762Z,66.10
2022-12-08T19:06:06.416Z,65.90
2022-12-08T19:08:37.973Z,67.40
2022-12-08T19:11:20.114Z,69.10
2022-12-08T19:13:51.968Z,83.00
2022-12-08T19:16:24.278Z,78.40
2022-12-08T19:18:55.969Z,77.50
2022-12-08T19:21:28.457Z,77.20
2022-12-08T19:24:00.423Z,78.00
2022-12-08T19:26:31.975Z,72.90
2022-12-08T19:29:03.654Z,76.60
2022-12-08T19:31:35.218Z,79.90
2022-12-08T19:34:06.997Z,82.60
2022-12-08T19:36:42.478Z,75.60
2022-12-08T19:39:35.990Z,74.40
2022-12-08T19:42:30.855Z,79.80
2022-12-08T19:45:07.415Z,65.90
2022-12-08T19:47:39.408Z,61.80
2022-12-08T19:50:31.473Z,65.80
2022-12-08T19:53:04.809Z,65.30
2022-12-08T19:55:37.075Z,62.00
2022-12-08T19:58:09.626Z,58.50
2022-12-08T20:00:42.191Z,62.90
2022-12-08T20:03:17.667Z,64.80
2022-12-08T20:05:50.816Z,62.30
2022-12-08T20:08:22.372Z,69.80
2022-12-08T20:10:56.116Z,69.70
2022-12-08T20:16:18.492Z,73.60
2022-12-08T20:18:50.151Z,71.30
2022-12-08T20:21:22.027Z,79.00
2022-12-08T20:23:53.566Z,79.50
2022-12-08T20:26:25.638Z,76.90
2022-12-08T20:28:57.226Z,80.00
2022-12-08T20:31:31.489Z,75.60
2022-12-08T20:34:03.228Z,82.80
2022-12-08T20:36:34.863Z,89.90
2022-12-08T20:39:06.785Z,85.30
2022-12-08T20:41:39.395Z,89.60
2022-12-08T20:44:11.489Z,83.40
2022-12-08T20:46:49.091Z,80.60
2022-12-08T20:49:21.201Z,75.10
2022-12-08T20:51:52.894Z,83.90
2022-12-08T20:54:24.651Z,110.70
2022-12-08T20:56:56.386Z,104.00
2022-12-08T20:59:28.309Z,109.90
2022-12-08T21:02:01.288Z,121.00
2022-12-08T21:04:33.203Z,107.80
2022-12-08T21:07:04.858Z,113.00
2022-12-08T21:09:36.885Z,107.70
2022-12-08T21:12:09.409Z,108.30
2022-12-08T21:14:42.473Z,99.80
2022-12-08T21:17:14.184Z,94.30
2022-12-08T21:19:45.952Z,94.10
2022-12-08T21:22:17.587Z,92.40
2022-12-08T21:24:49.617Z,90.30
2022-12-08T21:27:21.324Z,89.60
2022-12-08T21:29:52.935Z,93.30
2022-12-08T21:32:29.946Z,94.90
2022-12-08T21:35:02.322Z,91.10
2022-12-08T21:37:34.416Z,92.60
2022-12-08T21:40:08.352Z,93.90
2022-12-08T21:42:46.413Z,89.70
2022-12-08T21:45:20.041Z,91.80
2022-12-08T21:47:52.103Z,89.10
2022-12-08T21:50:24.426Z,84.00
2022-12-08T21:52:55.957Z,94.30
2022-12-08T21:55:27.740Z,99.20
2022-12-08T21:58:00.987Z,94.90
2022-12-08T22:00:33.032Z,94.10
2022-12-08T22:03:05.104Z,108.70
2022-12-08T22:05:37.908Z,107.50
2022-12-08T22:08:09.831Z,103.70
2022-12-08T22:10:49.320Z,108.70
2022-12-08T22:13:20.838Z,94.70
2022-12-08T22:15:59.876Z,85.60
2022-12-08T22:18:31.901Z,82.90
2022-12-08T22:21:04.073Z,70.00
2022-12-08T22:23:35.742Z,77.90
2022-12-08T22:26:08.690Z,69.20
2022-12-08T22:28:42.530Z,64.30
2022-12-08T22:33:46.946Z,61.60
2022-12-08T22:36:21.384Z,59.20
2022-12-08T22:38:54.700Z,56.40
2022-12-08T22:41:26.435Z,54.90
2022-12-08T22:43:58.171Z,53.60
2022-12-08T22:46:30.170Z,47.10
2022-12-08T22:49:02.015Z,53.80
2022-12-08T22:51:36.116Z,55.10
2022-12-08T22:54:08.007Z,49.80
2022-12-08T22:56:39.898Z,50.20
2022-12-08T22:59:11.631Z,48.20
2022-12-08T23:01:43.348Z,50.10
2022-12-08T23:04:17.992Z,44.70
2022-12-08T23:06:51.177Z,44.50
2022-12-08T23:09:23.632Z,41.60
2022-12-08T23:11:56.241Z,36.80
2022-12-08T23:14:28.049Z,38.40
2022-12-08T23:16:59.705Z,39.30
2022-12-08T23:19:31.437Z,38.30
2022-12-08T23:22:03.188Z,35.20
2022-12-08T23:24:34.977Z,36.80
2022-12-08T23:27:06.933Z,35.20
2022-12-08T23:29:39.364Z,35.80
2022-12-08T23:32:11.234Z,33.70
2022-12-08T23:34:43.101Z,36.30
2022-12-08T23:37:15.000Z,33.10
2022-12-08T23:39:46.899Z,36.30
2022-12-08T23:42:18.547Z,34.00
2022-12-08T23:44:50.290Z,30.20
2022-12-08T23:47:22.036Z,30.20
2022-12-08T23:49:53.872Z,33.70
2022-12-08T23:52:25.455Z,30.40
2022-12-08T23:54:57.128Z,33.90
2022-12-08T23:57:29.111Z,33.80
